Ghanzi, Botswana
Current Conditions -  °F | °C
As of 2:00 AM on Thursday 23 Oct 2014 (Local Time) from FBMN Reporting Station
Clear Clear  
Wind Chill: 73°   Ceiling: Unl
Heat Index: 73°   Visibility: 6mi
Dew Point: 37°   Wind: 0mph
Humidity: 27%   Direction: NA
Pressure: 29.97"   Gusts: NA
Location:  21.7°S, 21.64°E
Report Text: FBMN 230000Z 00000KT CAVOK 23/03 Q1015
Loading
Personal Weather Stations






























Interactive Weather Map
Tropical Storm Tracking
New forecast layout! Learn more

10-Day Weather Forecast

Advertisements
Track Severe Weather on mobile